createdAt,value
2022-11-09T00:02:47.257Z,98367.13
2022-11-09T00:05:59.594Z,98370.50
2022-11-09T00:09:10.830Z,98371.41
2022-11-09T00:12:17.050Z,98371.50
2022-11-09T00:15:23.532Z,98357.69
2022-11-09T00:18:29.290Z,98371.66
2022-11-09T00:21:35.794Z,98373.28
2022-11-09T00:24:44.223Z,98370.56
2022-11-09T00:27:52.280Z,98360.13
2022-11-09T00:31:03.175Z,98363.53
2022-11-09T00:34:09.999Z,98361.72
2022-11-09T00:37:15.598Z,98361.72
2022-11-09T00:40:24.825Z,98364.28
2022-11-09T00:43:30.702Z,98360.13
2022-11-09T00:46:37.136Z,98356.59
2022-11-09T00:49:42.923Z,98365.19
2022-11-09T00:52:49.547Z,98358.31
2022-11-09T00:56:03.790Z,98353.97
2022-11-09T00:59:13.529Z,98359.22
2022-11-09T01:02:19.522Z,98354.75
2022-11-09T01:05:25.989Z,98363.44
2022-11-09T01:08:31.720Z,98356.44
2022-11-09T01:11:41.484Z,98355.47
2022-11-09T01:14:47.477Z,98362.34
2022-11-09T01:17:54.849Z,98356.31
2022-11-09T01:21:06.333Z,98351.84
2022-11-09T01:24:13.293Z,98355.31
2022-11-09T01:27:21.706Z,98350.75
2022-11-09T01:30:28.207Z,98347.16
2022-11-09T01:33:35.492Z,98344.41
2022-11-09T01:36:42.722Z,98342.50
2022-11-09T01:39:48.325Z,98341.53
2022-11-09T01:42:57.577Z,98344.97
2022-11-09T01:46:07.910Z,98338.78
2022-11-09T01:49:24.037Z,98329.09
2022-11-09T01:52:35.200Z,98323.81
2022-11-09T01:55:42.305Z,98324.66
2022-11-09T01:58:54.797Z,98329.78
2022-11-09T02:02:03.440Z,98328.28
2022-11-09T02:05:15.614Z,98328.19
2022-11-09T02:08:26.358Z,98323.81
2022-11-09T02:11:32.432Z,98330.78
2022-11-09T02:14:42.386Z,98320.34
2022-11-09T02:17:48.444Z,98312.66
2022-11-09T02:21:02.648Z,98313.59
2022-11-09T02:24:09.481Z,98311.03
2022-11-09T02:27:16.484Z,98310.03
2022-11-09T02:30:25.237Z,98312.66
2022-11-09T02:33:32.297Z,98306.66
2022-11-09T02:36:41.244Z,98308.41
2022-11-09T02:39:52.127Z,98310.28
2022-11-09T02:43:00.096Z,98318.09
2022-11-09T02:46:08.718Z,98311.19
2022-11-09T02:49:16.125Z,98315.59
2022-11-09T02:52:24.658Z,98319.09
2022-11-09T02:55:33.056Z,98322.81
2022-11-09T02:58:39.003Z,98312.34
2022-11-09T03:01:45.576Z,98314.88
2022-11-09T03:04:51.592Z,98312.03
2022-11-09T03:08:03.147Z,98316.19
2022-11-09T03:11:12.594Z,98321.25
2022-11-09T03:14:19.649Z,98325.44
2022-11-09T03:17:30.418Z,98324.50
2022-11-09T03:20:37.208Z,98327.78
2022-11-09T03:23:46.032Z,98319.91
2022-11-09T03:26:53.112Z,98324.34
2022-11-09T03:29:58.987Z,98316.50
2022-11-09T03:33:10.322Z,98318.44
2022-11-09T03:36:17.178Z,98319.44
2022-11-09T03:39:26.522Z,98317.72
2022-11-09T03:42:32.469Z,98312.50
2022-11-09T03:45:39.652Z,98309.13
2022-11-09T03:48:45.354Z,98298.06
2022-11-09T03:51:51.869Z,98305.75
2022-11-09T03:55:00.241Z,98305.81
2022-11-09T03:58:09.886Z,98296.34
2022-11-09T04:01:15.566Z,98291.13
2022-11-09T04:04:22.149Z,98295.50
2022-11-09T04:07:27.997Z,98288.66
2022-11-09T04:10:37.251Z,98281.75
2022-11-09T04:13:42.843Z,98288.84
2022-11-09T04:16:49.523Z,98279.44
2022-11-09T04:19:55.132Z,98274.28
2022-11-09T04:23:03.405Z,98277.72
2022-11-09T04:26:12.004Z,98282.19
2022-11-09T04:29:18.474Z,98283.97
2022-11-09T04:32:24.106Z,98277.06
2022-11-09T04:35:32.274Z,98277.91
2022-11-09T04:38:38.188Z,98281.44
2022-11-09T04:41:47.492Z,98289.38
2022-11-09T04:44:53.144Z,98291.13
2022-11-09T04:48:01.023Z,98289.38
2022-11-09T04:51:10.622Z,98291.13
2022-11-09T04:54:17.298Z,98283.28
2022-11-09T04:57:25.709Z,98292.03
2022-11-09T05:00:32.281Z,98292.78
2022-11-09T05:03:38.292Z,98291.03
2022-11-09T05:06:44.904Z,98291.88
2022-11-09T05:09:50.938Z,98295.34
2022-11-09T05:13:04.133Z,98284.81
2022-11-09T05:16:10.345Z,98284.81
2022-11-09T05:19:16.833Z,98291.75
2022-11-09T05:22:38.138Z,98279.53
2022-11-09T05:25:44.674Z,98281.13
2022-11-09T05:28:53.109Z,98293.25
2022-11-09T05:31:59.666Z,98289.13
2022-11-09T05:35:07.233Z,98300.97
2022-11-09T05:38:13.779Z,98298.34
2022-11-09T05:41:20.198Z,98296.69
2022-11-09T05:44:34.528Z,98299.28
2022-11-09T05:47:41.307Z,98301.09
2022-11-09T05:50:48.177Z,98295.81
2022-11-09T05:54:01.212Z,98305.41
2022-11-09T05:57:08.770Z,98291.66
2022-11-09T06:00:19.084Z,98306.56
2022-11-09T06:03:25.591Z,98310.25
2022-11-09T06:06:31.225Z,98303.44
2022-11-09T06:09:37.832Z,98301.72
2022-11-09T06:12:43.683Z,98305.84
2022-11-09T06:15:58.845Z,98311.78
2022-11-09T06:19:06.468Z,98304.88
2022-11-09T06:22:13.117Z,98310.03
2022-11-09T06:25:18.921Z,98317.72
2022-11-09T06:28:25.371Z,98320.19
2022-11-09T06:31:33.817Z,98324.34
2022-11-09T06:34:40.327Z,98320.63
2022-11-09T06:37:45.953Z,98323.88
2022-11-09T06:40:54.358Z,98326.34
2022-11-09T06:44:00.663Z,98333.13
2022-11-09T06:47:11.640Z,98318.91
2022-11-09T06:50:18.284Z,98323.75
2022-11-09T06:53:24.852Z,98325.00
2022-11-09T06:56:30.885Z,98326.47
2022-11-09T06:59:38.253Z,98325.25
2022-11-09T07:02:46.948Z,98326.69
2022-11-09T07:05:55.310Z,98313.16
2022-11-09T07:09:01.280Z,98306.59
2022-11-09T07:12:09.306Z,98306.25
2022-11-09T07:15:15.696Z,98312.88
2022-11-09T07:18:25.559Z,98305.63
2022-11-09T07:21:31.303Z,98301.16
2022-11-09T07:24:37.812Z,98291.44
2022-11-09T07:27:43.785Z,98302.19
2022-11-09T07:30:53.143Z,98302.66
2022-11-09T07:34:04.983Z,98305.84
2022-11-09T07:37:14.308Z,98299.44
2022-11-09T07:40:20.223Z,98300.84
2022-11-09T07:43:26.866Z,98299.78
2022-11-09T07:46:35.763Z,98296.81
2022-11-09T07:49:45.252Z,98292.34
2022-11-09T07:52:51.184Z,98294.78
2022-11-09T07:56:02.520Z,98291.63
2022-11-09T07:59:08.831Z,98288.59
2022-11-09T08:02:16.483Z,98289.91
2022-11-09T08:05:25.236Z,98293.22
2022-11-09T08:08:31.722Z,98285.09
2022-11-09T08:11:37.382Z,98286.34
2022-11-09T08:14:43.872Z,98291.06
2022-11-09T08:17:49.503Z,98283.69
2022-11-09T08:20:58.827Z,98291.22
2022-11-09T08:24:06.393Z,98293.22
2022-11-09T08:27:13.193Z,98285.81
2022-11-09T08:30:21.066Z,98290.69
2022-11-09T08:33:28.182Z,98281.63
2022-11-09T08:36:36.606Z,98293.25
2022-11-09T08:39:43.491Z,98287.84
2022-11-09T08:42:49.637Z,98282.72
2022-11-09T08:45:56.143Z,98283.34
2022-11-09T08:49:05.193Z,98281.97
2022-11-09T08:52:14.613Z,98292.94
2022-11-09T08:55:20.782Z,98282.91
2022-11-09T08:58:27.719Z,98279.97
2022-11-09T09:01:33.367Z,98284.88
2022-11-09T09:04:39.924Z,98285.13
2022-11-09T09:07:48.441Z,98283.91
2022-11-09T09:10:54.924Z,98286.63
2022-11-09T09:14:00.753Z,98299.09
2022-11-09T09:17:09.112Z,98290.66
2022-11-09T09:20:14.878Z,98296.69
2022-11-09T09:23:24.499Z,98300.34
2022-11-09T12:13:58.082Z,98230.25
2022-11-09T12:15:39.083Z,98221.50
2022-11-09T12:17:43.222Z,98206.91
2022-11-09T12:19:35.053Z,98210.28
2022-11-09T12:22:57.768Z,98224.31
2022-11-09T12:25:27.637Z,98220.75
2022-11-09T12:28:06.422Z,98226.88
2022-11-09T12:30:39.524Z,98219.44
2022-11-09T12:33:06.603Z,98222.38
2022-11-09T12:35:36.753Z,98222.34
2022-11-09T12:38:11.535Z,98229.88
2022-11-09T12:40:39.511Z,98217.63
2022-11-09T12:43:07.265Z,98218.44
2022-11-09T12:45:35.891Z,98225.00
2022-11-09T12:48:02.838Z,98215.66
2022-11-09T12:50:28.490Z,98208.78
2022-11-09T12:52:53.778Z,98207.94
2022-11-09T12:55:25.645Z,98218.16
2022-11-09T12:57:50.783Z,98200.75
2022-11-09T13:04:29.521Z,98191.84
2022-11-09T13:07:33.518Z,98192.16
2022-11-09T13:10:03.122Z,98180.59
2022-11-09T13:12:42.947Z,98176.56
2022-11-09T13:15:30.890Z,98202.41
2022-11-09T13:18:06.417Z,98197.84
2022-11-09T13:20:57.679Z,98191.19
2022-11-09T13:27:03.860Z,98207.06
2022-11-09T13:29:31.558Z,98210.41
2022-11-09T13:32:27.411Z,98220.06
2022-11-09T13:39:33.576Z,98220.84
2022-11-09T13:42:00.468Z,98225.56
2022-11-09T13:44:34.560Z,98231.97
2022-11-09T13:47:04.406Z,98231.41
2022-11-09T13:49:52.472Z,98234.25
2022-11-09T13:52:49.738Z,98239.31
2022-11-09T13:55:29.563Z,98223.59
2022-11-09T13:57:58.942Z,98231.78
2022-11-09T14:00:28.083Z,98236.13
2022-11-09T14:03:00.188Z,98235.25
2022-11-09T14:05:32.459Z,98233.84
2022-11-09T14:07:58.639Z,98193.81
2022-11-09T14:10:55.010Z,98244.63
2022-11-09T14:14:00.528Z,98247.72
2022-11-09T14:16:45.435Z,98249.41
2022-11-09T14:19:28.577Z,98246.53
2022-11-09T14:21:55.999Z,98250.50
2022-11-09T14:24:24.895Z,98249.19
2022-11-09T14:27:16.901Z,98247.84
2022-11-09T14:29:56.206Z,98259.94
2022-11-09T14:32:33.173Z,98261.16
2022-11-09T14:35:29.775Z,98262.56
2022-11-09T14:37:57.842Z,98265.53
2022-11-09T14:40:28.098Z,98260.22
2022-11-09T14:42:59.884Z,98262.88
2022-11-09T14:45:31.043Z,98271.75
2022-11-09T14:48:01.292Z,98264.91
2022-11-09T14:50:31.860Z,98256.84
2022-11-09T14:52:59.585Z,98254.22
2022-11-09T14:55:27.755Z,98254.44
2022-11-09T14:57:59.593Z,98258.13
2022-11-09T15:00:34.040Z,98258.22
2022-11-09T15:03:00.572Z,98255.19
2022-11-09T15:05:41.867Z,98251.44
2022-11-09T15:08:21.907Z,98257.78
2022-11-09T15:10:53.409Z,98257.16
2022-11-09T15:13:35.038Z,98257.28
2022-11-09T15:16:02.639Z,98253.28
2022-11-09T15:18:35.238Z,98209.75
2022-11-09T15:21:19.982Z,98250.84
2022-11-09T15:23:49.517Z,98260.75
2022-11-09T15:26:43.832Z,98265.41
2022-11-09T15:29:42.474Z,98261.66
2022-11-09T15:32:18.713Z,98269.84
2022-11-09T15:34:56.487Z,98270.47
2022-11-09T15:37:31.114Z,98279.31
2022-11-09T15:39:57.750Z,98267.31
2022-11-09T15:42:23.907Z,98259.75
2022-11-09T15:44:56.069Z,98264.16
2022-11-09T15:47:34.849Z,98261.22
2022-11-09T15:50:00.417Z,98269.31
2022-11-09T15:52:28.635Z,98263.53
2022-11-09T15:54:54.397Z,98267.56
2022-11-09T15:57:22.664Z,98260.59
2022-11-09T15:59:54.345Z,98264.16
2022-11-09T16:02:21.970Z,98268.16
2022-11-09T16:04:48.627Z,98264.81
2022-11-09T16:07:18.692Z,98257.84
2022-11-09T16:09:45.041Z,98261.22
2022-11-09T16:12:11.491Z,98259.41
2022-11-09T16:14:37.344Z,98263.94
2022-11-09T16:17:06.508Z,98263.00
2022-11-09T16:19:32.715Z,98252.56
2022-11-09T16:22:06.266Z,98255.22
2022-11-09T16:24:33.219Z,98262.03
2022-11-09T16:26:58.499Z,98260.19
2022-11-09T16:29:27.530Z,98259.34
2022-11-09T16:31:53.466Z,98248.81
2022-11-09T16:34:21.764Z,98247.84
2022-11-09T16:36:51.064Z,98251.53
2022-11-09T16:39:19.922Z,98254.47
2022-11-09T16:41:47.886Z,98257.44
2022-11-09T16:44:13.395Z,98205.59
2022-11-09T16:46:39.477Z,98259.63
2022-11-09T16:49:06.715Z,98268.47
2022-11-09T16:51:34.789Z,98273.22
2022-11-09T16:54:00.526Z,98276.97
2022-11-09T16:56:28.492Z,98258.13
2022-11-09T16:58:58.696Z,98276.31
2022-11-09T17:01:25.193Z,98277.34
2022-11-09T17:03:50.645Z,98276.72
2022-11-09T17:06:16.091Z,98269.88
2022-11-09T17:08:45.809Z,98275.84
2022-11-09T17:11:12.887Z,98280.25
2022-11-09T17:13:38.139Z,98292.19
2022-11-09T17:16:09.073Z,98255.09
2022-11-09T17:18:34.683Z,98278.06
2022-11-09T17:20:59.617Z,98289.63
2022-11-09T17:23:25.722Z,98300.53
2022-11-09T17:26:03.633Z,98299.84
2022-11-09T17:28:30.878Z,98293.78
2022-11-09T17:30:57.040Z,98300.91
2022-11-09T17:33:22.050Z,98287.81
2022-11-09T17:35:48.531Z,98300.03
2022-11-09T17:38:13.970Z,98305.47
2022-11-09T17:40:39.236Z,98299.25
2022-11-09T17:43:09.898Z,98298.31
2022-11-09T17:45:35.459Z,98299.81
2022-11-09T17:48:03.736Z,98304.78
2022-11-09T17:50:29.479Z,98291.44
2022-11-09T17:52:54.547Z,98303.63
2022-11-09T17:55:20.404Z,98299.44
2022-11-09T17:57:46.516Z,98299.44
2022-11-09T18:00:17.192Z,98295.31
2022-11-09T18:02:42.017Z,98285.72
2022-11-09T18:05:11.132Z,98285.72
2022-11-09T18:07:35.981Z,98281.50
2022-11-09T18:10:01.273Z,98276.44
2022-11-09T18:12:30.653Z,98274.97
2022-11-09T18:14:55.607Z,98275.25
2022-11-09T18:17:23.360Z,98275.47
2022-11-09T18:19:49.198Z,98272.16
2022-11-09T18:22:14.140Z,98280.16
2022-11-09T18:24:39.512Z,98278.66
2022-11-09T18:27:07.459Z,98288.41
2022-11-09T18:29:32.728Z,98280.06
2022-11-09T18:31:57.825Z,98279.78
2022-11-09T18:34:26.813Z,98279.53
2022-11-09T18:36:52.579Z,98290.31
2022-11-09T18:39:18.471Z,98288.97
2022-11-09T18:41:44.545Z,98285.78
2022-11-09T18:44:09.693Z,98284.56
2022-11-09T18:46:35.601Z,98283.19
2022-11-09T18:49:03.452Z,98282.41
2022-11-09T18:51:31.428Z,98275.63
2022-11-09T18:53:56.781Z,98272.25
2022-11-09T18:56:25.214Z,98275.75
2022-11-09T18:58:52.694Z,98280.13
2022-11-09T19:01:19.006Z,98269.72
2022-11-09T19:03:45.783Z,98270.75
2022-11-09T19:06:14.674Z,98268.13
2022-11-09T19:08:59.534Z,98276.16
2022-11-09T19:11:26.168Z,98284.50
2022-11-09T19:13:51.601Z,98292.66
2022-11-09T19:16:18.642Z,98286.09
2022-11-09T19:18:44.894Z,98280.25
2022-11-09T19:21:31.668Z,98288.47
2022-11-09T19:24:00.517Z,98293.72
2022-11-09T19:26:27.462Z,98300.84
2022-11-09T19:28:52.432Z,98299.16
2022-11-09T19:31:21.870Z,98298.97
2022-11-09T19:33:48.898Z,98306.09
2022-11-09T19:36:29.608Z,98260.47
2022-11-09T19:38:59.864Z,98306.59
2022-11-09T19:41:25.739Z,98301.19
2022-11-09T19:43:58.723Z,98314.31
2022-11-09T19:46:25.456Z,98312.63
2022-11-09T19:48:52.673Z,98314.31
2022-11-09T19:51:19.612Z,98317.31
2022-11-09T19:53:51.079Z,98312.13
2022-11-09T19:56:19.227Z,98316.53
2022-11-09T19:58:45.424Z,98313.06
2022-11-09T20:01:14.132Z,98312.56
2022-11-09T20:03:40.482Z,98311.06
2022-11-09T20:06:09.284Z,98312.91
2022-11-09T20:08:36.798Z,98312.75
2022-11-09T20:11:09.476Z,98309.47
2022-11-09T20:13:39.304Z,98302.41
2022-11-09T20:16:06.402Z,98299.63
2022-11-09T20:18:31.793Z,98296.16
2022-11-09T20:20:58.049Z,98302.09
2022-11-09T20:23:22.990Z,98301.91
2022-11-09T20:25:48.763Z,98308.81
2022-11-09T20:28:14.728Z,98306.03
2022-11-09T20:30:44.953Z,98300.03
2022-11-09T20:33:11.571Z,98309.53
2022-11-09T20:35:38.479Z,98315.13
2022-11-09T20:38:07.162Z,98326.53
2022-11-09T20:40:32.063Z,98328.66
2022-11-09T20:42:58.464Z,98328.91
2022-11-09T20:45:23.572Z,98322.38
2022-11-09T20:48:14.359Z,98336.63
2022-11-09T20:50:37.756Z,98325.44
2022-11-09T20:53:03.116Z,98327.03
2022-11-09T20:55:28.488Z,98333.56
2022-11-09T20:57:54.816Z,98330.69
2022-11-09T21:00:24.332Z,98335.28
2022-11-09T21:02:52.819Z,98326.13
2022-11-09T21:05:19.130Z,98331.53
2022-11-09T21:07:44.805Z,98334.16
2022-11-09T21:10:10.397Z,98324.00
2022-11-09T21:12:36.178Z,98331.88
2022-11-09T21:15:03.083Z,98331.88
2022-11-09T21:17:28.128Z,98340.16
2022-11-09T21:19:56.615Z,98335.09
2022-11-09T21:22:21.895Z,98334.75
2022-11-09T21:25:03.409Z,98336.44
2022-11-09T21:27:48.000Z,98332.06
2022-11-09T21:30:14.651Z,98318.53
2022-11-09T21:32:42.055Z,98328.44
2022-11-09T21:35:12.344Z,98342.03
2022-11-09T21:37:37.580Z,98336.94
2022-11-09T21:40:03.546Z,98350.22
2022-11-09T21:42:29.025Z,98347.59
2022-11-09T21:44:54.070Z,98342.34
2022-11-09T21:47:21.300Z,98340.34
2022-11-09T21:49:46.392Z,98348.78
2022-11-09T21:52:14.500Z,98345.22
2022-11-09T21:54:40.760Z,98345.81
2022-11-09T21:57:07.944Z,98344.38
2022-11-09T21:59:33.250Z,98354.69
2022-11-09T22:01:59.234Z,98343.56
2022-11-09T22:04:24.683Z,98349.38
2022-11-09T22:06:50.035Z,98348.44
2022-11-09T22:09:21.514Z,98363.25
2022-11-09T22:12:03.397Z,98352.00
2022-11-09T22:14:46.220Z,98356.56
2022-11-09T22:17:12.783Z,98360.19
2022-11-09T22:19:57.277Z,98354.97
2022-11-09T22:22:22.963Z,98341.53
2022-11-09T22:24:51.966Z,98335.91
2022-11-09T22:27:17.177Z,98352.50
2022-11-09T22:29:43.268Z,98352.31
2022-11-09T22:32:09.763Z,98344.72
2022-11-09T22:34:34.918Z,98348.09
2022-11-09T22:37:00.791Z,98331.53
2022-11-09T22:39:28.478Z,98360.63
2022-11-09T22:41:56.496Z,98357.56
2022-11-09T22:44:21.578Z,98354.69
2022-11-09T22:46:47.753Z,98353.34
2022-11-09T22:49:13.021Z,98358.59
2022-11-09T22:51:38.815Z,98359.44
2022-11-09T22:54:06.430Z,98370.78
2022-11-09T22:56:31.839Z,98355.22
2022-11-09T22:59:00.090Z,98365.53
2022-11-09T23:01:28.503Z,98376.34
2022-11-09T23:03:53.837Z,98373.56
2022-11-09T23:06:22.404Z,98382.78
2022-11-09T23:08:49.692Z,98391.22
2022-11-09T23:11:17.590Z,98377.19
2022-11-09T23:13:43.663Z,98384.22
2022-11-09T23:16:14.618Z,98382.22
2022-11-09T23:18:56.623Z,98385.66
2022-11-09T23:21:25.375Z,98383.78
2022-11-09T23:23:51.675Z,98376.66
2022-11-09T23:26:17.071Z,98382.91
2022-11-09T23:28:43.483Z,98385.47
2022-11-09T23:31:14.555Z,98331.53
2022-11-09T23:33:40.999Z,98382.06
2022-11-09T23:36:09.773Z,98337.63
2022-11-09T23:38:36.498Z,98330.69
2022-11-09T23:41:06.324Z,98394.44
2022-11-09T23:43:33.294Z,98395.28
2022-11-09T23:45:59.649Z,98392.38
2022-11-09T23:48:27.422Z,98394.44
2022-11-09T23:50:56.271Z,98391.53
2022-11-09T23:53:22.351Z,98402.28
2022-11-09T23:55:47.953Z,98395.13
2022-11-09T23:58:14.020Z,98390.09
